createdAt,value
2022-08-14T00:04:44.885Z,0.9
2022-08-14T00:09:55.680Z,0.9
2022-08-14T00:14:43.940Z,0.9
2022-08-14T00:19:44.583Z,0.8
2022-08-14T00:24:45.160Z,0.6
2022-08-14T00:29:45.988Z,0.6
2022-08-14T00:34:47.249Z,0.8
2022-08-14T00:39:47.560Z,0.7
2022-08-14T00:44:48.784Z,0.7
2022-08-14T00:49:48.603Z,0.6
2022-08-14T00:54:49.529Z,0.6
2022-08-14T00:59:50.697Z,0.7
2022-08-14T01:04:53.928Z,0.9
2022-08-14T01:09:51.749Z,0.7
2022-08-14T01:14:52.460Z,0.6
2022-08-14T01:19:53.777Z,0.5
2022-08-14T01:24:53.786Z,0.7
2022-08-14T01:30:03.581Z,0.6
2022-08-14T01:35:19.346Z,0.7
2022-08-14T01:39:55.856Z,0.8
2022-08-14T01:44:57.091Z,0.6
2022-08-14T01:50:03.310Z,0.7
2022-08-14T01:54:58.416Z,0.6
2022-08-14T01:59:58.977Z,0.5
2022-08-14T02:04:59.309Z,0.8
2022-08-14T02:09:59.985Z,0.7
2022-08-14T02:15:01.329Z,0.8
2022-08-14T02:20:01.368Z,0.9
2022-08-14T02:25:02.078Z,0.9
2022-08-14T02:30:03.097Z,1.0
2022-08-14T02:35:03.552Z,0.9
2022-08-14T02:40:05.496Z,0.9
2022-08-14T02:45:05.205Z,0.9
2022-08-14T02:50:05.655Z,0.8
2022-08-14T02:55:06.879Z,1.1
2022-08-14T03:00:09.991Z,0.8
2022-08-14T03:05:08.154Z,1.1
2022-08-14T03:10:28.015Z,1.0
2022-08-14T03:15:14.154Z,0.9
2022-08-14T03:20:11.378Z,1.0
2022-08-14T03:25:10.619Z,1.0
2022-08-14T03:30:14.499Z,0.9
2022-08-14T03:35:11.768Z,1.1
2022-08-14T03:40:17.672Z,1.0
2022-08-14T03:45:18.578Z,1.1
2022-08-14T03:50:13.772Z,1.1
2022-08-14T03:55:14.468Z,1.2
2022-08-14T04:00:43.425Z,0.9
2022-08-14T04:05:16.354Z,1.2
2022-08-14T04:10:17.114Z,0.8
2022-08-14T04:15:17.116Z,1.0
2022-08-14T04:20:25.543Z,1.2
2022-08-14T04:25:18.143Z,0.8
2022-08-14T04:30:24.138Z,0.7
2022-08-14T04:35:23.669Z,0.7
2022-08-14T04:40:20.087Z,0.9
2022-08-14T04:45:20.766Z,0.8
2022-08-14T04:50:31.323Z,0.9
2022-08-14T04:55:21.954Z,0.8
2022-08-14T05:00:22.828Z,0.7
2022-08-14T05:05:23.290Z,0.8
2022-08-14T05:10:24.765Z,0.7
2022-08-14T05:15:24.694Z,0.8
2022-08-14T05:21:10.884Z,1.0
2022-08-14T05:25:33.498Z,1.2
2022-08-14T05:30:26.707Z,1.1
2022-08-14T05:35:27.076Z,1.3
2022-08-14T05:40:27.752Z,1.4
2022-08-14T05:45:29.198Z,1.0
2022-08-14T05:50:29.231Z,0.6
2022-08-14T05:55:29.749Z,0.8
2022-08-14T06:00:34.847Z,0.8
2022-08-14T06:05:31.170Z,0.6
2022-08-14T06:10:31.768Z,0.8
2022-08-14T06:15:32.689Z,0.7
2022-08-14T06:20:34.316Z,0.9
2022-08-14T06:25:33.808Z,0.9
2022-08-14T06:30:45.711Z,0.9
2022-08-14T06:35:34.953Z,1.0
2022-08-14T06:40:35.763Z,1.1
2022-08-14T06:45:37.358Z,0.9
2022-08-14T06:50:37.028Z,1.0
2022-08-14T06:55:40.673Z,1.0
2022-08-14T07:00:38.505Z,0.8
2022-08-14T07:05:39.099Z,1.1
2022-08-14T07:10:39.714Z,1.1
2022-08-14T07:15:42.381Z,1.0
2022-08-14T07:20:41.119Z,1.0
2022-08-14T07:25:42.326Z,1.3
2022-08-14T07:30:50.710Z,1.0
2022-08-14T07:35:57.557Z,0.9
2022-08-14T07:40:48.458Z,0.9
2022-08-14T07:45:44.979Z,1.2
2022-08-14T07:50:45.491Z,1.1
2022-08-14T07:55:46.074Z,1.0
2022-08-14T08:00:46.806Z,0.9
2022-08-14T08:05:47.682Z,1.3
2022-08-14T08:11:02.738Z,1.1
2022-08-14T08:15:48.996Z,0.9
2022-08-14T08:20:52.208Z,0.9
2022-08-14T08:25:50.281Z,1.0
2022-08-14T08:30:50.998Z,1.1
2022-08-14T08:35:51.767Z,0.9
2022-08-14T08:40:52.509Z,0.9
2022-08-14T08:45:54.053Z,0.9
2022-08-14T08:50:57.269Z,0.7
2022-08-14T08:55:54.658Z,1.0
2022-08-14T09:00:55.392Z,1.2
2022-08-14T09:05:56.214Z,1.0
2022-08-14T09:10:56.738Z,1.1
2022-08-14T09:15:57.599Z,1.0
2022-08-14T09:20:58.766Z,1.0
2022-08-14T09:26:01.054Z,0.9
2022-08-14T09:30:59.748Z,0.9
2022-08-14T09:36:00.151Z,0.9
2022-08-14T09:41:04.789Z,0.6
2022-08-14T09:46:02.602Z,0.7
2022-08-14T09:56:02.971Z,0.7
2022-08-14T10:01:06.131Z,0.6
2022-08-14T10:06:04.508Z,0.8
2022-08-14T10:11:05.147Z,0.9
2022-08-14T10:16:06.066Z,0.9
2022-08-14T10:21:10.282Z,0.8
2022-08-14T10:26:07.391Z,0.9
2022-08-14T10:31:08.311Z,0.9
2022-08-14T10:36:09.059Z,0.8
2022-08-14T10:41:09.930Z,1.1
2022-08-14T10:47:36.426Z,0.8
2022-08-14T10:51:11.193Z,1.0
2022-08-14T10:56:21.756Z,0.9
2022-08-14T11:01:12.751Z,0.9
2022-08-14T11:06:13.610Z,0.8
2022-08-14T11:11:14.207Z,1.0
2022-08-14T11:16:15.058Z,0.8
2022-08-14T11:21:15.829Z,1.0
2022-08-14T11:26:16.784Z,0.9
2022-08-14T11:31:17.381Z,0.8
2022-08-14T11:36:18.820Z,0.9
2022-08-14T11:41:18.958Z,0.8
2022-08-14T11:46:29.590Z,1.0
2022-08-14T11:51:20.372Z,0.9
2022-08-14T11:56:25.268Z,0.7
2022-08-14T12:01:21.895Z,0.7
2022-08-14T12:06:28.514Z,0.8
2022-08-14T12:11:23.575Z,0.7
2022-08-14T12:16:24.223Z,0.6
2022-08-14T12:21:25.673Z,0.5
2022-08-14T12:26:38.899Z,0.5
2022-08-14T12:31:26.734Z,0.5
2022-08-14T12:36:27.566Z,0.6
2022-08-14T12:41:37.000Z,0.6
2022-08-14T12:46:29.137Z,0.5
2022-08-14T12:51:30.566Z,0.5
2022-08-14T12:56:33.125Z,1.1
2022-08-14T13:01:31.702Z,1.0
2022-08-14T13:06:32.161Z,1.2
2022-08-14T13:11:32.959Z,1.0
2022-08-14T13:16:37.895Z,1.2
2022-08-14T13:22:04.762Z,1.1
2022-08-14T13:26:35.298Z,1.1
2022-08-14T13:31:36.051Z,1.0
2022-08-14T13:36:51.780Z,1.2
2022-08-14T13:41:37.595Z,1.3
2022-08-14T13:46:39.015Z,1.2
2022-08-14T13:51:39.130Z,1.1
2022-08-14T13:56:40.059Z,1.0
2022-08-14T14:01:43.259Z,1.2
2022-08-14T14:06:41.859Z,1.0
2022-08-14T14:11:42.302Z,1.0
2022-08-14T14:16:43.070Z,0.9
2022-08-14T14:21:43.877Z,0.9
2022-08-14T14:26:44.679Z,0.9
2022-08-14T14:31:46.004Z,1.0
2022-08-14T14:36:49.968Z,0.7
2022-08-14T14:41:47.066Z,0.9
2022-08-14T14:46:47.821Z,0.8
2022-08-14T14:51:51.317Z,1.3
2022-08-14T14:56:53.967Z,1.0
2022-08-14T15:01:50.251Z,1.1
2022-08-14T15:06:52.982Z,1.0
2022-08-14T15:11:51.732Z,1.1
2022-08-14T15:16:52.521Z,1.1
2022-08-14T15:21:53.651Z,1.4
2022-08-14T15:26:54.079Z,1.4
2022-08-14T15:31:55.197Z,1.4
2022-08-14T15:36:55.695Z,1.1
2022-08-14T15:41:57.149Z,1.3
2022-08-14T15:46:58.334Z,1.7
2022-08-14T15:51:59.150Z,1.2
2022-08-14T15:56:58.830Z,1.2
2022-08-14T16:01:59.591Z,1.4
2022-08-14T16:07:01.041Z,1.5
2022-08-14T16:12:04.615Z,1.5
2022-08-14T16:17:02.739Z,1.5
2022-08-14T16:23:10.671Z,1.3
2022-08-14T16:27:03.511Z,1.6
2022-08-14T16:32:33.241Z,1.4
2022-08-14T16:37:05.129Z,1.6
2022-08-14T16:42:38.400Z,1.4
2022-08-14T16:47:06.798Z,1.4
2022-08-14T16:52:43.869Z,1.6
2022-08-14T16:57:08.822Z,1.5
2022-08-14T17:02:09.109Z,1.7
2022-08-14T17:07:09.994Z,1.6
2022-08-14T17:12:33.780Z,1.7
2022-08-14T17:17:11.723Z,1.6
2022-08-14T17:22:12.488Z,1.6
2022-08-14T17:27:18.220Z,1.4
2022-08-14T17:32:22.024Z,1.6
2022-08-14T17:37:18.148Z,1.6
2022-08-14T17:42:15.800Z,1.7
2022-08-14T17:47:18.039Z,1.7
2022-08-14T17:52:34.823Z,1.5
2022-08-14T17:57:18.196Z,1.5
2022-08-14T18:02:19.097Z,1.7
2022-08-14T18:08:00.428Z,1.4
2022-08-14T18:12:31.531Z,1.8
2022-08-14T18:17:23.058Z,1.5
2022-08-14T18:22:31.915Z,1.4
2022-08-14T18:27:23.434Z,1.6
2022-08-14T18:32:23.762Z,1.4
2022-08-14T18:37:24.511Z,1.2
2022-08-14T18:42:30.459Z,1.2
2022-08-14T18:47:25.957Z,1.1
2022-08-14T18:52:32.049Z,1.4
2022-08-14T18:57:40.676Z,1.4
2022-08-14T19:02:30.623Z,1.0
2022-08-14T19:07:29.346Z,1.3
2022-08-14T19:12:35.120Z,1.6
2022-08-14T19:17:30.978Z,1.3
2022-08-14T19:22:31.288Z,1.3
2022-08-14T19:27:37.425Z,1.5
2022-08-14T19:32:32.857Z,1.6
2022-08-14T19:37:46.807Z,1.7
2022-08-14T19:42:34.551Z,1.4
2022-08-14T19:47:38.919Z,1.5
2022-08-14T19:52:39.669Z,1.4
2022-08-14T19:57:37.075Z,1.4
2022-08-14T20:02:37.925Z,1.4
2022-08-14T20:07:59.581Z,1.3
2022-08-14T20:12:57.578Z,1.4
2022-08-14T20:17:40.574Z,1.2
2022-08-14T20:22:40.783Z,1.3
2022-08-14T20:27:44.222Z,1.4
2022-08-14T20:32:42.091Z,1.5
2022-08-14T20:37:42.923Z,1.4
2022-08-14T20:42:50.622Z,1.3
2022-08-14T20:47:48.320Z,1.6
2022-08-14T20:52:45.129Z,1.5
2022-08-14T20:57:45.915Z,1.5
2022-08-14T21:02:50.841Z,1.4
2022-08-14T21:07:51.143Z,1.6
2022-08-14T21:13:27.404Z,1.6
2022-08-14T21:17:49.101Z,1.7
2022-08-14T21:22:49.685Z,1.6
2022-08-14T21:28:04.167Z,1.7
2022-08-14T21:32:58.034Z,1.4
2022-08-14T21:37:51.912Z,1.7
2022-08-14T21:42:52.860Z,1.5
2022-08-14T21:47:53.571Z,1.7
2022-08-14T21:53:01.093Z,1.5
2022-08-14T21:58:44.722Z,1.7
2022-08-14T22:02:55.730Z,1.5
2022-08-14T22:07:56.294Z,1.7
2022-08-14T22:13:00.464Z,1.5
2022-08-14T22:17:57.884Z,1.4
2022-08-14T22:22:58.533Z,1.3
2022-08-14T22:27:59.378Z,1.5
2022-08-14T22:33:00.476Z,1.5
2022-08-14T22:38:34.549Z,1.4
2022-08-14T22:43:08.385Z,1.6
2022-08-14T22:48:02.229Z,1.7
2022-08-14T22:53:03.149Z,1.4
2022-08-14T22:58:05.590Z,1.5
2022-08-14T23:03:04.594Z,1.6
2022-08-14T23:09:00.257Z,1.4
2022-08-14T23:13:05.751Z,1.7
2022-08-14T23:18:06.591Z,1.5
2022-08-14T23:23:07.141Z,1.7
2022-08-14T23:28:34.495Z,1.7
2022-08-14T23:33:08.749Z,1.3
2022-08-14T23:38:24.673Z,1.5
2022-08-14T23:43:10.066Z,1.7
2022-08-14T23:48:12.618Z,1.6
2022-08-14T23:53:13.118Z,1.6
2022-08-14T23:58:29.404Z,1.5
